createdAt,value
2023-04-01T00:01:19.115Z,90.20
2023-04-01T00:03:47.660Z,92.68
2023-04-01T00:06:18.537Z,96.47
2023-04-01T00:08:47.871Z,97.36
2023-04-01T00:11:16.976Z,97.69
2023-04-01T00:13:45.577Z,96.26
2023-04-01T00:16:21.659Z,94.96
2023-04-01T00:18:52.022Z,94.58
2023-04-01T00:21:21.686Z,94.23
2023-04-01T00:23:51.874Z,96.14
2023-04-01T00:26:22.587Z,94.68
2023-04-01T00:28:51.351Z,93.86
2023-04-01T00:31:20.140Z,93.90
2023-04-01T00:33:49.238Z,94.37
2023-04-01T00:36:20.577Z,94.48
2023-04-01T00:38:49.052Z,93.76
2023-04-01T00:41:18.929Z,93.38
2023-04-01T00:43:49.987Z,92.91
2023-04-01T00:46:19.193Z,92.68
2023-04-01T00:48:57.062Z,92.70
2023-04-01T00:51:30.479Z,92.48
2023-04-01T00:54:03.000Z,92.23
2023-04-01T00:56:56.977Z,92.37
2023-04-01T00:59:28.964Z,91.64
2023-04-01T01:01:57.137Z,91.24
2023-04-01T01:04:36.676Z,91.29
2023-04-01T01:07:24.954Z,90.39
2023-04-01T01:10:16.315Z,89.45
2023-04-01T01:13:07.745Z,88.59
2023-04-01T01:15:51.134Z,88.04
2023-04-01T01:18:55.662Z,87.52
2023-04-01T01:21:47.068Z,87.10
2023-04-01T01:24:43.425Z,87.01
2023-04-01T01:28:11.579Z,86.33
2023-04-01T01:31:10.815Z,86.35
2023-04-01T01:33:45.305Z,86.30
2023-04-01T01:36:16.126Z,86.63
2023-04-01T01:38:46.500Z,86.40
2023-04-01T01:41:18.823Z,86.59
2023-04-01T01:43:50.241Z,86.52
2023-04-01T01:46:24.470Z,86.45
2023-04-01T01:48:54.408Z,86.55
2023-04-01T01:51:24.611Z,86.51
2023-04-01T01:53:53.146Z,86.53
2023-04-01T01:56:28.457Z,86.42
2023-04-01T01:59:02.500Z,86.37
2023-04-01T02:01:34.374Z,86.19
2023-04-01T02:04:12.381Z,85.90
2023-04-01T02:06:49.089Z,85.58
2023-04-01T02:09:18.073Z,85.65
2023-04-01T02:11:54.468Z,85.84
2023-04-01T02:15:13.078Z,85.55
2023-04-01T02:17:45.966Z,85.43
2023-04-01T02:20:16.045Z,84.96
2023-04-01T02:22:50.789Z,84.61
2023-04-01T02:25:26.205Z,84.93
2023-04-01T02:27:56.254Z,84.81
2023-04-01T02:30:26.843Z,84.99
2023-04-01T02:32:58.036Z,85.15
2023-04-01T02:35:27.241Z,85.85
2023-04-01T02:37:56.243Z,86.18
2023-04-01T02:40:25.290Z,86.04
2023-04-01T02:42:53.798Z,86.06
2023-04-01T02:45:22.262Z,86.12
2023-04-01T02:47:50.888Z,86.14
2023-04-01T02:50:19.232Z,86.20
2023-04-01T02:52:47.461Z,86.06
2023-04-01T02:55:16.370Z,86.06
2023-04-01T02:57:44.728Z,86.59
2023-04-01T03:00:13.810Z,86.28
2023-04-01T03:02:42.527Z,86.03
2023-04-01T03:05:11.862Z,86.47
2023-04-01T03:07:40.483Z,86.13
2023-04-01T03:10:09.616Z,86.15
2023-04-01T03:12:38.061Z,86.27
2023-04-01T03:15:10.671Z,86.36
2023-04-01T03:17:42.600Z,86.18
2023-04-01T03:20:12.308Z,86.00
2023-04-01T03:22:42.872Z,85.99
2023-04-01T03:25:12.322Z,85.60
2023-04-01T03:27:40.888Z,85.70
2023-04-01T03:30:10.707Z,85.65
2023-04-01T03:32:43.857Z,85.71
2023-04-01T03:35:12.589Z,85.95
2023-04-01T03:37:41.286Z,86.03
2023-04-01T03:40:10.620Z,86.13
2023-04-01T03:42:39.116Z,86.12
2023-04-01T03:45:07.934Z,86.14
2023-04-01T03:47:36.985Z,86.20
2023-04-01T03:50:07.134Z,86.32
2023-04-01T03:52:35.917Z,86.24
2023-04-01T03:55:05.146Z,85.81
2023-04-01T03:57:33.644Z,85.93
2023-04-01T04:00:04.917Z,85.82
2023-04-01T04:02:42.474Z,86.08
2023-04-01T04:05:11.946Z,86.28
2023-04-01T04:07:40.482Z,86.65
2023-04-01T04:10:10.458Z,87.07
2023-04-01T04:12:39.053Z,87.60
2023-04-01T04:15:08.122Z,87.86
2023-04-01T04:17:36.848Z,87.82
2023-04-01T04:20:05.893Z,87.97
2023-04-01T04:22:34.225Z,88.01
2023-04-01T04:25:03.151Z,88.31
2023-04-01T04:27:31.705Z,88.17
2023-04-01T04:30:09.558Z,88.00
2023-04-01T04:32:38.506Z,88.07
2023-04-01T04:35:07.786Z,87.92
2023-04-01T04:37:36.451Z,87.87
2023-04-01T04:40:05.110Z,88.26
2023-04-01T04:42:33.995Z,88.74
2023-04-01T04:45:07.914Z,89.85
2023-04-01T04:47:36.623Z,90.16
2023-04-01T04:50:05.563Z,90.22
2023-04-01T04:52:34.598Z,90.73
2023-04-01T04:55:02.974Z,91.19
2023-04-01T04:57:31.391Z,90.96
2023-04-01T05:00:00.105Z,91.33
2023-04-01T05:02:47.960Z,91.99
2023-04-01T05:05:16.971Z,91.67
2023-04-01T05:07:45.764Z,91.41
2023-04-01T05:10:14.321Z,90.65
2023-04-01T05:12:42.730Z,90.06
2023-04-01T05:15:12.904Z,89.78
2023-04-01T05:17:42.130Z,89.56
2023-04-01T05:20:13.946Z,88.25
2023-04-01T05:22:42.606Z,87.68
2023-04-01T05:25:11.257Z,87.18
2023-04-01T05:27:40.002Z,86.36
2023-04-01T05:30:08.892Z,85.92
2023-04-01T05:32:48.470Z,85.82
2023-04-01T05:35:16.985Z,85.79
2023-04-01T05:37:45.504Z,85.38
2023-04-01T05:40:14.192Z,85.21
2023-04-01T05:42:42.697Z,84.98
2023-04-01T05:45:11.504Z,84.80
2023-04-01T05:48:18.158Z,84.46
2023-04-01T05:50:46.504Z,84.17
2023-04-01T05:53:15.969Z,83.29
2023-04-01T05:55:45.795Z,82.83
2023-04-01T05:58:15.517Z,81.93
2023-04-01T06:00:46.736Z,81.52
2023-04-01T06:03:18.535Z,81.36
2023-04-01T06:05:47.037Z,81.74
2023-04-01T06:08:20.326Z,81.34
2023-04-01T06:11:25.971Z,81.17
2023-04-01T06:14:10.256Z,80.90
2023-04-01T06:17:17.660Z,80.77
2023-04-01T06:20:27.507Z,80.46
2023-04-01T06:23:20.958Z,80.29
2023-04-01T06:26:01.165Z,80.06
2023-04-01T06:28:53.162Z,80.44
2023-04-01T06:31:28.005Z,80.85
2023-04-01T06:34:40.303Z,80.30
2023-04-01T06:37:46.664Z,79.15
2023-04-01T06:40:52.684Z,78.62
2023-04-01T06:43:32.808Z,77.20
2023-04-01T06:46:56.506Z,76.96
2023-04-01T06:50:17.393Z,76.66
2023-04-01T06:53:21.292Z,76.45
2023-04-01T06:56:14.396Z,76.81
2023-04-01T06:59:20.763Z,76.86
2023-04-01T07:02:29.007Z,76.56
2023-04-01T07:04:59.589Z,76.27
2023-04-01T07:07:39.427Z,76.69
2023-04-01T07:10:23.650Z,76.80
2023-04-01T07:13:34.366Z,77.19
2023-04-01T07:16:08.119Z,77.09
2023-04-01T07:18:51.681Z,77.27
2023-04-01T07:21:31.943Z,77.03
2023-04-01T07:24:08.177Z,76.63
2023-04-01T07:26:45.574Z,74.07
2023-04-01T07:29:17.597Z,74.35
2023-04-01T07:32:17.459Z,73.20
2023-04-01T07:34:47.002Z,73.45
2023-04-01T07:37:18.743Z,73.26
2023-04-01T07:39:59.874Z,73.21
2023-04-01T07:42:43.162Z,74.21
2023-04-01T07:45:18.351Z,74.41
2023-04-01T07:48:21.148Z,74.22
2023-04-01T07:51:04.651Z,75.19
2023-04-01T07:53:51.657Z,74.92
2023-04-01T07:56:37.277Z,74.10
2023-04-01T07:59:19.253Z,73.78
2023-04-01T08:02:05.860Z,72.86
2023-04-01T08:04:34.750Z,72.45
2023-04-01T08:07:26.517Z,73.22
2023-04-01T08:10:30.600Z,74.04
2023-04-01T08:14:05.186Z,74.27
2023-04-01T08:17:38.412Z,74.85
2023-04-01T08:20:19.003Z,75.93
2023-04-01T08:22:54.568Z,75.25
2023-04-01T08:25:33.669Z,76.25
2023-04-01T08:28:08.686Z,76.35
2023-04-01T08:31:00.155Z,76.89
2023-04-01T08:33:32.676Z,75.37
2023-04-01T08:36:29.862Z,73.13
2023-04-01T08:39:14.640Z,73.40
2023-04-01T08:42:17.531Z,74.43
2023-04-01T08:45:27.563Z,73.73
2023-04-01T08:48:10.005Z,73.68
2023-04-01T08:50:52.302Z,70.86
2023-04-01T08:53:36.876Z,69.68
2023-04-01T08:56:36.826Z,68.40
2023-04-01T08:59:25.587Z,69.49
2023-04-01T09:02:00.327Z,70.56
2023-04-01T09:05:19.099Z,72.52
2023-04-01T09:07:48.525Z,72.76
2023-04-01T09:10:21.260Z,70.94
2023-04-01T09:13:09.270Z,72.14
2023-04-01T09:15:53.379Z,71.71
2023-04-01T09:18:32.252Z,74.37
2023-04-01T09:21:13.274Z,71.82
2023-04-01T09:24:00.322Z,71.56
2023-04-01T09:26:50.162Z,71.52
2023-04-01T09:29:58.796Z,69.96
2023-04-01T09:32:55.419Z,71.12
2023-04-01T09:35:48.732Z,71.62
2023-04-01T09:38:33.472Z,71.99
2023-04-01T09:41:23.862Z,73.48
2023-04-01T09:44:21.382Z,73.91
2023-04-01T09:47:17.246Z,74.84
2023-04-01T09:50:18.157Z,74.48
2023-04-01T09:52:53.049Z,75.01
2023-04-01T09:55:52.675Z,75.36
2023-04-01T09:58:46.785Z,74.91
2023-04-01T10:01:53.965Z,75.28
2023-04-01T10:04:37.720Z,75.43
2023-04-01T10:07:40.547Z,75.29
2023-04-01T10:10:31.207Z,75.95
2023-04-01T10:13:32.401Z,76.07
2023-04-01T10:16:19.964Z,76.09
2023-04-01T10:18:48.736Z,76.37
2023-04-01T10:21:39.117Z,76.31
2023-04-01T10:24:43.424Z,76.67
2023-04-01T10:27:34.442Z,76.41
2023-04-01T10:30:43.517Z,76.36
2023-04-01T10:33:39.497Z,75.56
2023-04-01T10:36:45.946Z,75.62
2023-04-01T10:39:51.612Z,74.73
2023-04-01T10:43:14.662Z,74.27
2023-04-01T10:46:16.959Z,74.38
2023-04-01T10:49:10.626Z,73.76
2023-04-01T10:52:24.139Z,73.36
2023-04-01T10:55:36.210Z,72.17
2023-04-01T10:58:29.767Z,71.18
2023-04-01T11:01:47.071Z,70.96
2023-04-01T11:05:07.998Z,70.07
2023-04-01T11:08:07.279Z,69.75
2023-04-01T11:11:22.802Z,69.25
2023-04-01T11:14:13.144Z,68.99
2023-04-01T11:17:13.947Z,68.66
2023-04-01T11:20:15.154Z,68.64
2023-04-01T11:22:56.393Z,68.31
2023-04-01T11:25:50.674Z,68.15
2023-04-01T11:29:15.331Z,67.36
2023-04-01T11:32:05.583Z,65.06
2023-04-01T11:34:38.108Z,63.39
2023-04-01T11:37:38.578Z,62.23
2023-04-01T11:40:51.676Z,60.21
2023-04-01T11:44:00.425Z,59.34
2023-04-01T11:47:26.984Z,59.06
2023-04-01T11:50:12.400Z,58.93
2023-04-01T11:53:04.314Z,59.34
2023-04-01T11:55:39.051Z,58.94
2023-04-01T11:58:29.195Z,58.53
2023-04-01T12:01:28.271Z,58.48
2023-04-01T12:04:28.553Z,57.29
2023-04-01T12:07:21.761Z,57.43
2023-04-01T12:10:13.691Z,56.98
2023-04-01T12:13:04.523Z,56.92
2023-04-01T12:15:51.514Z,57.46
2023-04-01T12:18:24.870Z,57.75
2023-04-01T12:21:21.351Z,57.75
2023-04-01T12:23:56.514Z,57.20
2023-04-01T12:26:52.046Z,57.85
2023-04-01T12:29:30.337Z,58.22
2023-04-01T12:32:23.267Z,57.80
2023-04-01T12:35:02.316Z,58.09
2023-04-01T12:37:43.454Z,57.50
2023-04-01T12:40:40.035Z,57.57
2023-04-01T12:43:27.321Z,58.53
2023-04-01T12:46:08.907Z,58.31
2023-04-01T12:49:16.116Z,58.15
2023-04-01T12:52:02.363Z,58.16
2023-04-01T12:54:46.405Z,58.21
2023-04-01T12:57:34.680Z,58.63
2023-04-01T13:00:24.854Z,57.53
2023-04-01T13:03:08.719Z,57.73
2023-04-01T13:05:58.461Z,57.37
2023-04-01T13:08:42.667Z,56.71
2023-04-01T13:11:16.277Z,56.80
2023-04-01T13:14:25.004Z,56.16
2023-04-01T13:17:04.000Z,55.80
2023-04-01T13:20:05.053Z,55.37
2023-04-01T13:22:50.718Z,55.09
2023-04-01T13:25:40.753Z,55.21
2023-04-01T13:28:24.510Z,55.25
2023-04-01T13:31:02.159Z,55.42
2023-04-01T13:33:49.949Z,55.73
2023-04-01T13:36:38.243Z,56.43
2023-04-01T13:39:31.922Z,56.88
2023-04-01T13:42:39.044Z,56.92
2023-04-01T13:45:15.451Z,57.15
2023-04-01T13:47:59.217Z,57.82
2023-04-01T13:50:52.424Z,58.19
2023-04-01T13:54:20.944Z,58.14
2023-04-01T13:57:01.175Z,58.87
2023-04-01T13:59:48.727Z,58.88
2023-04-01T14:02:35.800Z,58.69
2023-04-01T14:05:16.226Z,58.11
2023-04-01T14:08:26.540Z,57.57
2023-04-01T14:11:03.907Z,57.80
2023-04-01T14:13:42.452Z,58.46
2023-04-01T14:16:23.091Z,58.99
2023-04-01T14:19:21.124Z,59.77
2023-04-01T14:22:04.594Z,60.90
2023-04-01T14:25:00.979Z,61.14
2023-04-01T14:27:40.001Z,61.99
2023-04-01T14:30:11.381Z,62.90
2023-04-01T14:32:57.164Z,64.54
2023-04-01T14:35:31.488Z,65.71
2023-04-01T14:38:26.141Z,67.83
2023-04-01T14:41:33.696Z,68.29
2023-04-01T14:44:28.847Z,68.64
2023-04-01T14:47:23.500Z,68.48
2023-04-01T14:50:06.961Z,69.85
2023-04-01T14:52:41.418Z,70.95
2023-04-01T14:55:47.446Z,71.40
2023-04-01T14:58:17.165Z,71.92
2023-04-01T15:00:50.944Z,72.06
2023-04-01T15:03:37.918Z,73.00
2023-04-01T15:06:28.157Z,73.62
2023-04-01T15:09:15.318Z,74.01
2023-04-01T15:12:08.448Z,74.05
2023-04-01T15:14:40.095Z,73.74
2023-04-01T15:17:22.232Z,73.27
2023-04-01T15:20:09.238Z,72.48
2023-04-01T15:22:57.360Z,71.73
2023-04-01T15:25:35.022Z,71.99
2023-04-01T15:28:42.325Z,72.61
2023-04-01T15:31:27.909Z,71.95
2023-04-01T15:33:59.555Z,70.87
2023-04-01T15:36:33.997Z,71.24
2023-04-01T15:39:21.352Z,71.21
2023-04-01T15:42:11.401Z,71.50
2023-04-01T15:45:20.685Z,72.20
2023-04-01T15:48:27.300Z,73.47
2023-04-01T15:51:19.093Z,73.64
2023-04-01T15:53:53.443Z,74.40
2023-04-01T15:57:00.251Z,74.75
2023-04-01T15:59:34.523Z,74.96
2023-04-01T16:02:02.994Z,75.36
2023-04-01T16:05:02.804Z,76.82
2023-04-01T16:08:00.406Z,77.27
2023-04-01T16:11:27.460Z,77.10
2023-04-01T16:14:34.249Z,77.28
2023-04-01T16:17:22.591Z,77.59
2023-04-01T16:20:13.785Z,78.51
2023-04-01T16:26:05.117Z,76.99
2023-04-01T16:29:04.497Z,76.77
2023-04-01T16:32:25.493Z,76.22
2023-04-01T16:36:01.266Z,77.18
2023-04-01T16:39:21.334Z,77.10
2023-04-01T16:42:27.733Z,76.88
2023-04-01T16:45:04.256Z,77.18
2023-04-01T16:47:55.691Z,76.75
2023-04-01T16:51:00.042Z,76.79
2023-04-01T16:53:37.708Z,76.74
2023-04-01T16:56:18.184Z,76.80
2023-04-01T16:59:35.709Z,77.60
2023-04-01T17:02:53.111Z,78.45
2023-04-01T17:05:35.096Z,78.43
2023-04-01T17:08:12.668Z,78.44
2023-04-01T17:10:53.944Z,79.32
2023-04-01T17:13:43.559Z,79.89
2023-04-01T17:16:18.973Z,79.91
2023-04-01T17:19:02.458Z,81.22
2023-04-01T17:21:47.744Z,82.30
2023-04-01T17:24:22.089Z,84.18
2023-04-01T17:27:00.606Z,85.47
2023-04-01T17:29:31.934Z,85.78
2023-04-01T17:32:02.799Z,86.26
2023-04-01T17:35:01.004Z,87.53
2023-04-01T17:37:42.164Z,89.36
2023-04-01T17:40:41.576Z,89.53
2023-04-01T17:43:15.962Z,92.13
2023-04-01T17:45:51.452Z,92.30
2023-04-01T17:48:31.780Z,92.41
2023-04-01T17:51:09.285Z,93.38
2023-04-01T17:54:14.496Z,94.34
2023-04-01T17:57:24.233Z,95.18
2023-04-01T18:00:17.151Z,95.31
2023-04-01T18:03:22.898Z,96.75
2023-04-01T18:06:18.983Z,98.66
2023-04-01T18:09:24.422Z,99.94
2023-04-01T18:12:01.652Z,100.00
2023-04-01T18:15:21.071Z,100.00
2023-04-01T18:18:13.526Z,100.00
2023-04-01T18:20:48.296Z,100.00
2023-04-01T18:23:38.436Z,100.00
2023-04-01T18:26:14.419Z,100.00
2023-04-01T18:29:01.162Z,100.00
2023-04-01T18:31:47.580Z,100.00
2023-04-01T18:34:53.133Z,100.00
2023-04-01T18:37:47.387Z,100.00
2023-04-01T18:40:25.495Z,100.00
2023-04-01T18:43:06.773Z,100.00
2023-04-01T18:45:42.756Z,100.00
2023-04-01T18:48:35.752Z,100.00
2023-04-01T18:51:26.815Z,100.00
2023-04-01T18:54:01.781Z,100.00
2023-04-01T18:56:32.781Z,100.00
2023-04-01T18:59:30.688Z,100.00
2023-04-01T19:02:21.801Z,100.00
2023-04-01T19:05:05.530Z,100.00
2023-04-01T19:07:51.290Z,100.00
2023-04-01T19:10:23.014Z,100.00
2023-04-01T19:12:51.507Z,100.00
2023-04-01T19:16:01.598Z,100.00
2023-04-01T19:18:53.625Z,100.00
2023-04-01T19:21:31.038Z,100.00
2023-04-01T19:24:21.686Z,100.00
2023-04-01T19:27:00.034Z,100.00
2023-04-01T19:30:11.958Z,100.00
2023-04-01T19:33:09.177Z,100.00
2023-04-01T19:35:43.150Z,100.00
2023-04-01T19:38:40.529Z,100.00
2023-04-01T19:41:26.669Z,100.00
2023-04-01T19:44:03.979Z,100.00
2023-04-01T19:46:42.752Z,100.00
2023-04-01T19:49:19.886Z,100.00
2023-04-01T19:51:52.641Z,100.00
2023-04-01T19:55:33.793Z,100.00
2023-04-01T19:58:06.871Z,100.00
2023-04-01T20:00:45.704Z,100.00
2023-04-01T20:04:05.083Z,100.00
2023-04-01T20:06:45.706Z,100.00
2023-04-01T20:09:33.012Z,100.00
2023-04-01T20:12:52.500Z,100.00
2023-04-01T20:15:23.926Z,100.00
2023-04-01T20:17:55.198Z,100.00
2023-04-01T20:20:28.381Z,100.00
2023-04-01T20:23:00.961Z,100.00
2023-04-01T20:25:33.405Z,100.00
2023-04-01T20:28:48.687Z,100.00
2023-04-01T20:31:26.239Z,100.00
2023-04-01T20:33:59.014Z,100.00
2023-04-01T20:36:52.182Z,100.00
2023-04-01T20:39:26.657Z,100.00
2023-04-01T20:42:23.060Z,100.00
2023-04-01T20:44:56.973Z,100.00
2023-04-01T20:47:52.935Z,100.00
2023-04-01T20:50:27.178Z,100.00
2023-04-01T20:53:56.789Z,100.00
2023-04-01T20:57:14.270Z,100.00
2023-04-01T21:04:14.818Z,100.00
2023-04-01T21:07:25.862Z,100.00
2023-04-01T21:10:45.041Z,100.00
2023-04-01T21:13:45.495Z,100.00
2023-04-01T21:17:28.496Z,100.00
2023-04-01T21:25:16.774Z,100.00
2023-04-01T21:28:26.938Z,100.00
2023-04-01T21:32:06.936Z,100.00
2023-04-01T21:35:34.442Z,100.00
2023-04-01T21:38:22.867Z,100.00
2023-04-01T21:44:56.411Z,100.00
2023-04-01T21:47:55.122Z,100.00
2023-04-01T21:50:45.494Z,100.00
2023-04-01T21:54:15.005Z,100.00
2023-04-01T21:57:35.893Z,100.00
2023-04-01T22:01:14.070Z,100.00
2023-04-01T22:04:05.389Z,100.00
2023-04-01T22:07:42.083Z,100.00
2023-04-01T22:11:23.924Z,100.00
2023-04-01T22:14:43.064Z,100.00
2023-04-01T22:17:20.312Z,100.00
2023-04-01T22:20:15.120Z,100.00
2023-04-01T22:23:08.866Z,100.00
2023-04-01T22:26:00.301Z,100.00
2023-04-01T22:28:34.003Z,100.00
2023-04-01T22:31:04.218Z,100.00
2023-04-01T22:34:07.402Z,100.00
2023-04-01T22:36:57.298Z,100.00
2023-04-01T22:39:56.249Z,100.00
2023-04-01T22:42:43.336Z,100.00
2023-04-01T22:45:15.101Z,100.00
2023-04-01T22:47:46.250Z,100.00
2023-04-01T22:50:54.876Z,100.00
2023-04-01T22:53:45.656Z,100.00
2023-04-01T22:57:22.901Z,100.00
2023-04-01T23:00:53.912Z,100.00
2023-04-01T23:04:14.086Z,100.00
2023-04-01T23:11:46.979Z,100.00
2023-04-01T23:14:41.642Z,100.00
2023-04-01T23:17:59.434Z,100.00
2023-04-01T23:20:56.647Z,100.00
2023-04-01T23:24:07.981Z,100.00
2023-04-01T23:27:55.525Z,100.00
2023-04-01T23:31:33.100Z,100.00
2023-04-01T23:34:04.847Z,100.00
2023-04-01T23:36:40.281Z,100.00
2023-04-01T23:39:32.053Z,100.00
2023-04-01T23:42:07.446Z,100.00
2023-04-01T23:44:37.409Z,100.00
2023-04-01T23:47:10.466Z,100.00
2023-04-01T23:49:49.031Z,100.00
2023-04-01T23:52:23.604Z,100.00
2023-04-01T23:55:54.635Z,100.00
2023-04-01T23:59:22.948Z,100.00
